Time;durP1;ratioP1;P1;durP2;ratioP2;P2;SDS_P1;SDS_P2;PMS_P1;PMS_P2;Temp;Humidity;BMP_temperature;BMP_pressure;BME280_temperature;BME280_humidity;BME280_pressure;Samples;Min_cycle;Max_cycle;Signal;HPM_P1;HPM_P2
2022/07/11 00:01:56;;;;;;;4.70;2.20;;;;;;;18.73;53.49;99579.03;2620954;54;20046;-66
2022/07/11 00:04:25;;;;;;;2.63;2.20;;;;;;;18.73;53.62;99571.00;2625863;31;20545;-66
2022/07/11 00:06:55;;;;;;;4.63;2.40;;;;;;;18.73;53.39;99571.81;2620412;39;20546;-67
2022/07/11 00:09:24;;;;;;;2.00;1.90;;;;;;;18.70;53.86;99574.97;2618559;54;20053;-65
2022/07/11 00:11:57;;;;;;;5.35;1.88;;;;;;;18.68;53.71;99570.84;2619375;54;20033;-67
2022/07/11 00:14:27;;;;;;;2.63;2.10;;;;;;;18.66;53.84;99567.59;2619716;54;20029;-69
2022/07/11 00:16:57;;;;;;;3.15;2.08;;;;;;;18.70;53.66;99563.44;2619989;39;20414;-69
2022/07/11 00:19:26;;;;;;;2.92;1.77;;;;;;;18.71;53.74;99563.22;2618651;54;20027;-65
2022/07/11 00:21:56;;;;;;;3.45;1.95;;;;;;;18.66;54.03;99568.41;2619122;47;20031;-65
2022/07/11 00:24:26;;;;;;;3.33;2.15;;;;;;;18.64;54.07;99570.47;2618943;54;20038;-67
2022/07/11 00:26:58;;;;;;;2.30;1.83;;;;;;;18.64;54.32;99559.78;2618407;47;20038;-67
2022/07/11 00:29:29;;;;;;;2.30;2.10;;;;;;;18.63;54.23;99555.47;2617962;47;20030;-66
2022/07/11 00:31:58;;;;;;;3.58;2.25;;;;;;;18.66;53.83;99552.34;2619734;39;20427;-67
2022/07/11 00:34:28;;;;;;;3.17;1.70;;;;;;;18.60;54.42;99557.78;2619651;39;20446;-65
2022/07/11 00:36:58;;;;;;;2.20;1.80;;;;;;;18.47;54.40;99558.78;2619698;31;20537;-65
2022/07/11 00:39:27;;;;;;;1.98;1.88;;;;;;;18.37;54.66;99555.78;2618691;54;20027;-66
2022/07/11 00:42:00;;;;;;;3.28;2.20;;;;;;;18.36;54.62;99549.63;2618824;54;20019;-66
2022/07/11 00:44:30;;;;;;;2.73;1.93;;;;;;;18.34;54.65;99550.91;2619117;54;20026;-65
2022/07/11 00:46:59;;;;;;;3.03;2.10;;;;;;;18.36;54.99;99548.81;2619392;54;20115;-64
2022/07/11 00:49:29;;;;;;;2.97;2.30;;;;;;;18.43;54.56;99546.88;2618760;47;20031;-64
2022/07/11 00:51:59;;;;;;;4.53;2.10;;;;;;;18.40;54.93;99548.13;2619160;47;20034;-67
2022/07/11 00:54:30;;;;;;;3.28;2.38;;;;;;;18.41;55.08;99547.13;2619899;54;20042;-65
2022/07/11 00:57:02;;;;;;;2.53;2.00;;;;;;;18.45;55.05;99544.78;2618692;47;20030;-67
2022/07/11 00:59:32;;;;;;;2.95;2.25;;;;;;;18.46;55.00;99547.25;2619844;54;20530;-66
2022/07/11 01:02:04;;;;;;;3.55;2.40;;;;;;;18.43;54.82;99544.19;2619626;54;20030;-67
2022/07/11 01:04:34;;;;;;;2.75;1.92;;;;;;;18.31;55.38;99542.28;2620013;54;20031;-68
2022/07/11 01:07:04;;;;;;;3.67;1.90;;;;;;;18.31;55.41;99534.25;2619923;54;20030;-67
2022/07/11 01:09:36;;;;;;;5.95;2.83;;;;;;;18.28;55.48;99542.72;2619205;54;20033;-65
2022/07/11 01:12:09;;;;;;;2.50;2.30;;;;;;;18.25;55.56;99539.69;2619854;54;20121;-67
2022/07/11 01:14:39;;;;;;;4.43;2.25;;;;;;;18.28;55.12;99539.22;2619133;54;20074;-66
2022/07/11 01:17:08;;;;;;;2.75;2.20;;;;;;;18.34;55.08;99530.31;2619207;54;20034;-65
2022/07/11 01:19:38;;;;;;;5.20;2.70;;;;;;;18.38;55.11;99531.50;2619590;54;20038;-68
2022/07/11 01:22:07;;;;;;;2.50;2.03;;;;;;;18.41;55.09;99531.06;2619246;54;20034;-66
2022/07/11 01:24:40;;;;;;;3.70;2.83;;;;;;;18.39;55.00;99527.78;2619024;54;20038;-66
2022/07/11 01:27:09;;;;;;;2.85;2.55;;;;;;;18.30;55.29;99524.59;2619338;54;20612;-66
2022/07/11 01:29:39;;;;;;;4.63;2.53;;;;;;;18.27;55.33;99529.56;2619639;54;20077;-66
2022/07/11 01:32:10;;;;;;;6.07;2.40;;;;;;;18.28;55.83;99523.97;2619867;54;20057;-67
2022/07/11 01:34:39;;;;;;;2.75;2.47;;;;;;;18.31;55.59;99523.53;2619783;39;20529;-67
2022/07/11 01:37:09;;;;;;;4.32;2.30;;;;;;;18.31;55.17;99525.41;2619255;54;20082;-65
2022/07/11 01:39:42;;;;;;;2.78;2.58;;;;;;;18.20;55.74;99521.59;2619307;54;20089;-68
2022/07/11 01:42:12;;;;;;;4.45;2.90;;;;;;;18.16;56.05;99525.78;2619686;54;20077;-71
2022/07/11 01:44:42;;;;;;;2.88;2.60;;;;;;;18.08;56.27;99523.41;2618895;47;20030;-68
2022/07/11 01:47:12;;;;;;;3.53;2.60;;;;;;;18.03;56.19;99531.28;2619689;54;20046;-68
2022/07/11 01:49:44;;;;;;;4.20;2.78;;;;;;;17.98;56.64;99523.13;2620621;54;20026;-66
2022/07/11 01:52:18;;;;;;;;;;;;;;;17.99;56.33;99514.06;2621363;39;20414;-67
2022/07/11 01:54:51;;;;;;;4.43;2.78;;;;;;;17.98;56.20;99523.13;2620417;39;20342;-68
2022/07/11 01:57:20;;;;;;;2.95;2.65;;;;;;;17.95;56.05;99518.22;2621036;54;20039;-67
2022/07/11 01:59:50;;;;;;;3.67;2.70;;;;;;;17.90;56.53;99526.91;2620514;39;20395;-69
2022/07/11 02:02:20;;;;;;;3.70;2.70;;;;;;;17.84;56.70;99522.47;2620685;54;20066;-68
2022/07/11 02:04:49;;;;;;;4.28;2.83;;;;;;;17.82;56.46;99524.53;2620292;54;20031;-67
2022/07/11 02:08:11;;;;;;;2.50;2.30;;;;;;;17.82;57.15;99520.00;2618956;54;20038;-68
2022/07/11 02:10:12;;;;;;;3.40;2.80;;;;;;;17.92;56.59;99524.84;2619816;39;20434;-66
2022/07/11 02:12:41;;;;;;;4.40;3.40;;;;;;;17.94;56.91;99516.59;2620005;54;20055;-67
2022/07/11 02:15:12;;;;;;;27.70;19.35;;;;;;;17.99;57.00;99519.41;2624521;54;20279;-67
2022/07/11 02:17:41;;;;;;;6.25;4.35;;;;;;;17.98;57.07;99512.44;2622021;39;20430;-66
2022/07/11 02:20:11;;;;;;;2.67;2.30;;;;;;;17.92;56.57;99516.81;2618866;54;20069;-67
2022/07/11 02:22:46;;;;;;;3.92;2.47;;;;;;;17.96;56.78;99509.13;2619369;54;20053;-66
2022/07/11 02:25:19;;;;;;;3.90;2.67;;;;;;;17.88;57.19;99512.13;2618737;54;20042;-65
2022/07/11 02:27:49;;;;;;;4.38;2.67;;;;;;;17.91;57.09;99507.13;2619760;54;20037;-68
2022/07/11 02:30:19;;;;;;;2.92;2.33;;;;;;;17.96;57.07;99515.34;2619223;54;20042;-68
2022/07/11 02:32:50;;;;;;;6.00;3.20;;;;;;;18.02;56.77;99500.22;2619388;54;20058;-65
2022/07/11 02:35:20;;;;;;;3.92;3.28;;;;;;;17.99;57.05;99504.16;2618912;54;20038;-68
2022/07/11 02:37:51;;;;;;;7.43;3.30;;;;;;;18.01;57.24;99496.75;2619589;54;20037;-66
2022/07/11 02:40:23;;;;;;;4.22;3.58;;;;;;;18.06;56.58;99504.09;2619509;39;20108;-66
2022/07/11 02:42:52;;;;;;;6.55;4.13;;;;;;;18.10;56.75;99499.94;2619028;54;20026;-66
2022/07/11 02:45:22;;;;;;;8.98;3.95;;;;;;;18.05;56.38;99502.47;2619312;54;20042;-67
2022/07/11 02:47:52;;;;;;;6.43;4.15;;;;;;;18.06;56.46;99504.91;2619890;54;20065;-65
2022/07/11 02:50:21;;;;;;;9.00;4.55;;;;;;;18.05;56.70;99505.16;2619634;54;20026;-67
2022/07/11 02:52:51;;;;;;;5.07;3.42;;;;;;;18.01;57.02;99504.78;2619839;54;20051;-67
2022/07/11 02:55:23;;;;;;;4.53;3.70;;;;;;;17.97;57.17;99505.44;2619745;54;20026;-67
2022/07/11 02:57:53;;;;;;;4.25;3.78;;;;;;;17.94;56.75;99506.69;2620263;54;20031;-66
2022/07/11 03:00:23;;;;;;;4.38;3.03;;;;;;;17.89;57.26;99505.75;2625967;54;20062;-67
2022/07/11 03:02:52;;;;;;;4.50;2.65;;;;;;;17.92;57.42;99506.13;2628199;54;20038;-66
2022/07/11 03:05:22;;;;;;;2.80;2.40;;;;;;;17.92;57.09;99508.78;2626437;54;20038;-67
2022/07/11 03:07:51;;;;;;;3.83;2.88;;;;;;;17.85;57.06;99505.38;2628417;54;20653;-67
2022/07/11 03:10:24;;;;;;;3.65;3.05;;;;;;;17.78;57.70;99512.63;2627127;54;20030;-66
2022/07/11 03:12:54;;;;;;;3.53;2.92;;;;;;;17.79;57.67;99512.41;2627140;54;20038;-66
2022/07/11 03:15:23;;;;;;;3.10;2.83;;;;;;;17.83;57.67;99516.28;2626123;54;20054;-66
2022/07/11 03:17:53;;;;;;;4.07;3.30;;;;;;;17.79;57.34;99514.25;2626781;54;20034;-66
2022/07/11 03:20:22;;;;;;;4.47;3.20;;;;;;;17.72;57.51;99519.66;2626848;54;20139;-66
2022/07/11 03:22:52;;;;;;;4.57;3.45;;;;;;;17.69;57.98;99513.94;2627156;54;20027;-67
2022/07/11 03:25:24;;;;;;;5.60;3.50;;;;;;;17.65;58.25;99524.25;2622392;39;20426;-67
2022/07/11 03:27:53;;;;;;;4.50;3.88;;;;;;;17.62;58.20;99518.53;2618906;54;20108;-66
2022/07/11 03:30:23;;;;;;;6.78;3.55;;;;;;;17.59;58.59;99511.75;2618721;54;20045;-66
2022/07/11 03:32:53;;;;;;;4.85;3.35;;;;;;;17.59;58.09;99514.44;2619006;54;20038;-67
2022/07/11 03:38:04;;;;;;;6.00;4.15;;;;;;;17.61;58.24;99517.72;2619121;54;20051;-67
2022/07/11 03:40:37;;;;;;;3.17;2.80;;;;;;;17.63;58.59;99514.81;2625354;54;20026;-65
2022/07/11 03:43:06;;;;;;;4.07;2.83;;;;;;;17.65;58.33;99521.59;2626170;54;20023;-66
2022/07/11 03:45:36;;;;;;;4.55;3.75;;;;;;;17.66;58.53;99519.72;2625362;54;20042;-66
2022/07/11 03:48:06;;;;;;;3.20;2.50;;;;;;;17.65;58.20;99518.91;2624568;54;20041;-67
2022/07/11 03:50:39;;;;;;;4.10;2.80;;;;;;;17.56;58.26;99522.91;2618797;54;20761;-65
2022/07/11 03:53:09;;;;;;;2.80;2.40;;;;;;;17.54;58.36;99514.28;2618426;54;20604;-68
2022/07/11 03:55:41;;;;;;;3.65;2.70;;;;;;;17.54;58.54;99511.63;2619122;54;20074;-67
2022/07/11 03:58:11;;;;;;;4.60;3.20;;;;;;;17.58;58.49;99513.63;2618733;39;20428;-68
2022/07/11 04:03:36;;;;;;;3.33;3.03;;;;;;;17.68;58.58;99512.31;2617655;54;20278;-66
2022/07/11 04:06:06;;;;;;;4.35;3.08;;;;;;;17.69;58.40;99509.41;2619169;39;20421;-67
2022/07/11 04:18:04;;;;;;;3.35;3.05;;;;;;;17.80;58.12;99510.56;2617834;47;20118;-71
2022/07/11 04:20:34;;;;;;;5.38;3.08;;;;;;;17.86;58.46;99498.97;2619812;54;20028;-71
2022/07/11 04:23:03;;;;;;;3.28;2.95;;;;;;;17.95;58.16;99504.84;2619995;54;20051;-73
2022/07/11 04:25:33;;;;;;;5.05;2.60;;;;;;;18.01;58.22;99502.09;2619257;47;20034;-71
2022/07/11 04:28:03;;;;;;;3.78;2.97;;;;;;;18.04;57.96;99500.81;2618818;47;20145;-72
2022/07/11 04:30:32;;;;;;;7.10;4.78;;;;;;;18.09;57.63;99503.66;2619499;54;20411;-72
2022/07/11 04:33:05;;;;;;;8.15;4.15;;;;;;;18.07;57.90;99505.72;2618579;54;20019;-72
2022/07/11 04:35:39;;;;;;;7.43;4.10;;;;;;;18.06;57.66;99498.75;2618546;54;20026;-72
2022/07/11 04:38:09;;;;;;;4.15;3.58;;;;;;;18.07;57.75;99497.69;2618414;54;20030;-71
2022/07/11 04:40:38;;;;;;;4.75;3.20;;;;;;;18.14;58.06;99495.78;2618354;54;20053;-70
2022/07/11 04:43:08;;;;;;;7.32;3.80;;;;;;;18.23;57.68;99496.28;2618888;54;20031;-70
2022/07/11 04:45:38;;;;;;;5.10;3.10;;;;;;;18.17;58.10;99495.31;2619346;54;20042;-71
2022/07/11 04:48:10;;;;;;;6.53;3.78;;;;;;;18.27;57.74;99502.81;2620873;54;20035;-72
2022/07/11 04:50:39;;;;;;;7.45;3.10;;;;;;;18.38;57.56;99498.56;2623401;54;20641;-73
2022/07/11 04:53:09;;;;;;;3.95;3.40;;;;;;;18.41;57.32;99503.44;2624895;54;20046;-74
2022/07/11 04:55:41;;;;;;;5.05;2.75;;;;;;;18.45;56.86;99501.94;2623592;54;20030;-72
2022/07/11 04:58:11;;;;;;;6.18;3.03;;;;;;;18.52;56.52;99495.47;2625004;54;20034;-72
2022/07/11 05:00:40;;;;;;;5.72;3.25;;;;;;;18.55;57.09;99497.69;2624484;54;20030;-71
2022/07/11 05:03:14;;;;;;;3.40;3.10;;;;;;;18.62;57.25;99505.63;2621924;54;20071;-71
2022/07/11 05:05:44;;;;;;;7.63;3.25;;;;;;;18.69;57.00;99506.34;2620235;39;20090;-71
2022/07/11 05:08:14;;;;;;;3.95;3.28;;;;;;;18.74;56.31;99503.84;2619719;54;20069;-72
2022/07/11 05:10:43;;;;;;;7.22;3.17;;;;;;;18.80;56.17;99502.91;2619320;54;20037;-71
2022/07/11 05:13:13;;;;;;;5.22;2.53;;;;;;;18.84;56.57;99508.63;2618970;54;20030;-71
2022/07/11 05:15:44;;;;;;;11.40;3.10;;;;;;;18.90;56.62;99509.56;2619106;54;20035;-71
2022/07/11 05:18:17;;;;;;;5.93;3.28;;;;;;;18.93;56.41;99515.28;2619394;54;20027;-71
2022/07/11 05:20:48;;;;;;;4.50;3.00;;;;;;;18.99;56.28;99514.38;2618066;47;20054;-70
2022/07/11 05:23:18;;;;;;;3.42;2.83;;;;;;;19.00;56.16;99504.47;2620165;39;20429;-71
2022/07/11 05:25:48;;;;;;;5.20;3.20;;;;;;;19.09;55.81;99513.81;2619871;39;20430;-71
2022/07/11 05:28:17;;;;;;;3.95;2.75;;;;;;;19.16;55.50;99521.75;2619219;54;20031;-70
2022/07/11 05:30:47;;;;;;;4.03;3.63;;;;;;;19.20;55.75;99523.75;2620468;47;20030;-71
2022/07/11 05:33:19;;;;;;;3.80;3.20;;;;;;;19.22;55.68;99518.13;2621534;47;20034;-71
2022/07/11 05:35:48;;;;;;;7.05;3.25;;;;;;;19.21;55.25;99521.88;2621168;47;20030;-71
2022/07/11 05:38:18;;;;;;;5.28;3.13;;;;;;;19.24;55.60;99524.09;2620963;47;20034;-70
2022/07/11 05:40:48;;;;;;;3.85;2.65;;;;;;;19.30;55.19;99526.66;2620201;54;20037;-71
2022/07/11 05:43:17;;;;;;;4.40;2.90;;;;;;;19.37;55.29;99531.09;2620654;47;20034;-72
2022/07/11 05:45:47;;;;;;;4.07;3.08;;;;;;;19.41;54.91;99534.94;2621695;39;20433;-71
2022/07/11 05:48:19;;;;;;;3.90;3.22;;;;;;;19.48;55.00;99535.66;2619953;54;20026;-71
2022/07/11 05:50:48;;;;;;;7.68;3.58;;;;;;;19.55;55.22;99537.19;2619376;54;20031;-71
2022/07/11 05:53:18;;;;;;;6.70;3.50;;;;;;;19.59;54.79;99534.00;2619074;54;20031;-70
2022/07/11 05:55:48;;;;;;;3.97;3.22;;;;;;;19.67;55.12;99539.88;2619887;39;20466;-72
2022/07/11 05:58:17;;;;;;;5.65;3.70;;;;;;;19.72;54.78;99536.50;2618399;54;20034;-70
2022/07/11 06:00:47;;;;;;;6.55;3.28;;;;;;;19.78;55.00;99533.69;2618493;54;20033;-71
2022/07/11 06:03:19;;;;;;;4.32;3.42;;;;;;;19.81;54.94;99536.97;2617915;47;20018;-71
2022/07/11 06:05:49;;;;;;;3.70;2.77;;;;;;;19.85;54.77;99543.50;2618340;54;20022;-71
2022/07/11 06:11:01;;;;;;;4.47;3.22;;;;;;;20.06;54.14;99536.69;2618721;54;20074;-71
2022/07/11 06:13:32;;;;;;;3.65;3.17;;;;;;;20.21;54.16;99531.66;2622209;54;20034;-72
2022/07/11 06:16:01;;;;;;;4.60;3.05;;;;;;;20.26;53.37;99535.22;2626632;54;20054;-71
2022/07/11 06:18:34;;;;;;;3.83;2.83;;;;;;;20.34;53.27;99530.56;2625973;54;20031;-72
2022/07/11 06:21:03;;;;;;;5.13;2.90;;;;;;;20.36;53.10;99531.13;2624805;54;20042;-71
2022/07/11 06:23:34;;;;;;;6.57;2.50;;;;;;;20.44;53.13;99530.72;2619460;54;20019;-71
2022/07/11 06:26:04;;;;;;;3.10;2.72;;;;;;;20.49;52.94;99529.00;2618262;54;20037;-71
2022/07/11 06:28:34;;;;;;;4.78;2.38;;;;;;;20.56;52.46;99525.34;2619730;54;20064;-71
2022/07/11 06:31:03;;;;;;;11.25;3.03;;;;;;;20.63;52.36;99532.22;2622420;54;20026;-70
2022/07/11 06:33:36;;;;;;;5.43;2.60;;;;;;;20.75;52.28;99524.91;2623334;54;20026;-71
2022/07/11 06:36:07;;;;;;;4.50;2.90;;;;;;;20.84;51.47;99519.16;2620737;39;20410;-70
2022/07/11 06:38:37;;;;;;;4.43;2.50;;;;;;;20.82;51.78;99524.78;2619120;54;20263;-70
2022/07/11 06:41:06;;;;;;;6.32;4.47;;;;;;;20.98;51.60;99520.44;2618311;39;20454;-71
2022/07/11 06:43:36;;;;;;;8.27;2.78;;;;;;;21.14;50.74;99524.22;2619141;54;20030;-71
2022/07/11 06:46:05;;;;;;;7.78;3.05;;;;;;;21.15;51.19;99524.00;2619099;54;20034;-70
2022/07/11 06:48:38;;;;;;;4.82;2.40;;;;;;;21.15;50.49;99524.00;2618620;54;20030;-71
2022/07/11 06:51:09;;;;;;;2.80;2.17;;;;;;;21.17;50.64;99527.22;2618135;54;20041;-71
2022/07/11 06:53:38;;;;;;;5.13;2.53;;;;;;;21.23;50.43;99536.22;2618157;54;20030;-72
2022/07/11 06:56:09;;;;;;;4.05;2.35;;;;;;;21.22;50.37;99534.56;2618267;54;20030;-72
2022/07/11 06:58:38;;;;;;;2.25;2.05;;;;;;;21.29;50.47;99537.91;2617872;54;20038;-71
2022/07/11 07:01:09;;;;;;;5.82;2.50;;;;;;;21.38;50.45;99527.59;2617956;54;20031;-71
2022/07/11 07:03:41;;;;;;;5.03;2.40;;;;;;;21.36;50.49;99527.03;2617455;47;20068;-70
2022/07/11 07:06:12;;;;;;;4.63;2.08;;;;;;;21.43;50.24;99527.66;2618044;54;20107;-71
2022/07/11 07:08:41;;;;;;;4.13;2.13;;;;;;;21.47;50.04;99526.94;2618054;54;20035;-70
2022/07/11 07:11:11;;;;;;;4.40;2.00;;;;;;;21.42;49.34;99536.78;2618049;54;20034;-72
2022/07/11 07:13:41;;;;;;;4.20;2.13;;;;;;;21.46;49.32;99532.56;2618221;54;20074;-71
2022/07/11 07:16:11;;;;;;;4.00;2.10;;;;;;;21.44;49.50;99526.63;2617629;54;20022;-70
2022/07/11 07:18:45;;;;;;;3.70;1.88;;;;;;;21.75;49.44;99525.16;2617867;39;20499;-68
2022/07/11 07:21:16;;;;;;;3.40;2.35;;;;;;;22.01;49.07;99521.78;2618486;39;20430;-69
2022/07/11 07:23:45;;;;;;;4.93;1.92;;;;;;;22.18;48.07;99520.94;2617906;54;20038;-67
2022/07/11 07:26:15;;;;;;;3.10;1.88;;;;;;;22.17;47.95;99524.69;2617589;54;20031;-68
2022/07/11 07:28:46;;;;;;;5.82;2.53;;;;;;;22.16;47.87;99518.47;2617961;54;20026;-68
2022/07/11 07:31:16;;;;;;;2.50;2.10;;;;;;;22.29;47.67;99527.22;2617610;47;20042;-70
2022/07/11 07:33:49;;;;;;;4.18;2.13;;;;;;;22.20;48.01;99524.97;2617102;54;20121;-68
2022/07/11 07:36:18;;;;;;;3.88;2.05;;;;;;;22.13;48.13;99524.38;2617213;54;20129;-70
2022/07/11 07:38:49;;;;;;;2.72;1.75;;;;;;;22.20;47.86;99516.91;2617762;54;20034;-68
2022/07/11 07:41:20;;;;;;;3.22;1.90;;;;;;;22.32;47.79;99514.06;2618120;39;20430;-69
2022/07/11 07:43:51;;;;;;;2.63;1.48;;;;;;;22.40;47.28;99520.91;2617767;54;20031;-69
2022/07/11 07:46:20;;;;;;;2.42;1.67;;;;;;;22.36;47.12;99525.97;2617772;54;20038;-69
2022/07/11 07:48:54;;;;;;;2.28;1.45;;;;;;;22.31;46.97;99512.44;2617560;54;20030;-69
2022/07/11 07:51:23;;;;;;;1.77;1.10;;;;;;;22.36;46.85;99525.16;2617474;54;20038;-69
2022/07/11 07:53:53;;;;;;;2.40;1.30;;;;;;;22.38;46.89;99518.47;2617740;54;20030;-69
2022/07/11 07:56:25;;;;;;;3.33;1.85;;;;;;;22.33;46.39;99515.72;2618316;39;20465;-69
2022/07/11 07:58:55;;;;;;;3.70;1.17;;;;;;;21.97;47.54;99522.53;2617873;54;20041;-69
2022/07/11 08:01:34;;;;;;;3.50;1.60;;;;;;;22.21;47.32;99513.16;2618263;54;20039;-67
2022/07/11 08:04:08;;;;;;;1.35;1.17;;;;;;;22.29;46.37;99498.44;2618510;47;20014;-68
2022/07/11 08:06:39;;;;;;;2.03;1.17;;;;;;;22.34;46.88;99505.75;2618344;39;20437;-68
2022/07/11 08:09:09;;;;;;;1.65;1.45;;;;;;;22.45;46.35;99511.00;2618213;31;20520;-68
2022/07/11 08:11:39;;;;;;;1.83;1.50;;;;;;;22.47;46.79;99506.16;2617564;47;20038;-68
2022/07/11 08:14:10;;;;;;;3.47;1.40;;;;;;;22.50;46.24;99511.06;2617981;54;20053;-68
2022/07/11 08:16:41;;;;;;;2.38;1.40;;;;;;;22.52;46.46;99507.28;2618185;54;20572;-68
2022/07/11 08:19:13;;;;;;;3.97;1.95;;;;;;;22.56;46.66;99506.53;2617031;54;20027;-68
2022/07/11 08:21:43;;;;;;;5.73;3.10;;;;;;;22.82;46.81;99507.59;2617357;51;20030;-68
2022/07/11 08:24:12;;;;;;;2.60;1.23;;;;;;;23.04;45.95;99514.81;2616582;54;20034;-68
2022/07/11 08:26:42;;;;;;;1.30;1.08;;;;;;;23.03;46.01;99514.00;2617695;54;20042;-67
2022/07/11 08:29:11;;;;;;;3.10;1.40;;;;;;;22.89;45.42;99521.66;2617470;54;20612;-68
2022/07/11 08:31:41;;;;;;;1.25;1.00;;;;;;;22.71;45.83;99513.97;2617526;54;20031;-67
2022/07/11 08:34:13;;;;;;;2.92;1.02;;;;;;;22.82;45.76;99517.53;2618277;39;20445;-68
2022/07/11 08:36:45;;;;;;;1.30;1.10;;;;;;;22.89;45.74;99515.47;2617751;54;20019;-68
2022/07/11 08:39:14;;;;;;;2.38;1.08;;;;;;;22.88;45.24;99525.44;2619496;54;20039;-69
2022/07/11 08:41:46;;;;;;;0.57;0.57;;;;;;;22.53;45.73;99525.06;2620805;54;20042;-69
2022/07/11 08:44:17;;;;;;;0.80;0.80;;;;;;;22.44;45.63;99524.72;2622266;54;20030;-68
2022/07/11 08:46:47;;;;;;;1.02;0.70;;;;;;;22.50;45.86;99523.72;2624711;54;20030;-69
2022/07/11 08:49:19;;;;;;;1.95;1.00;;;;;;;22.48;45.85;99521.25;2624912;54;20043;-69
2022/07/11 08:51:49;;;;;;;0.70;0.70;;;;;;;22.31;46.30;99515.16;2625045;47;20023;-69
2022/07/11 08:54:19;;;;;;;1.15;0.70;;;;;;;22.09;46.75;99515.13;2624837;54;20022;-69
2022/07/11 08:56:50;;;;;;;0.80;0.70;;;;;;;22.22;46.47;99525.56;2624211;54;20038;-70
2022/07/11 08:59:20;;;;;;;4.85;1.25;;;;;;;22.34;46.55;99528.13;2624162;51;20518;-69
2022/07/11 09:01:54;;;;;;;0.77;0.73;;;;;;;22.43;46.13;99523.91;2624190;54;20050;-68
2022/07/11 09:04:28;;;;;;;1.30;0.98;;;;;;;22.58;46.22;99525.97;2625550;54;20051;-68
2022/07/11 09:06:58;;;;;;;0.85;0.85;;;;;;;22.47;46.01;99530.41;2620471;54;20035;-68
2022/07/11 09:09:27;;;;;;;0.95;0.88;;;;;;;22.58;46.34;99530.53;2618343;54;20034;-70
2022/07/11 09:11:58;;;;;;;3.08;1.05;;;;;;;22.40;46.28;99527.09;2618731;54;20045;-69
2022/07/11 09:14:30;;;;;;;1.48;1.02;;;;;;;22.47;46.12;99519.63;2618526;39;20418;-70
2022/07/11 09:17:02;;;;;;;2.05;1.30;;;;;;;22.57;46.03;99531.59;2619007;54;20031;-69
2022/07/11 09:19:37;;;;;;;1.70;1.33;;;;;;;22.31;46.38;99527.81;2618032;54;20042;-69
2022/07/11 09:27:45;;;;;;;5.85;1.30;;;;;;;22.47;46.60;99525.03;2617995;54;20070;-69
2022/07/11 09:30:22;;;;;;;2.33;1.25;;;;;;;22.56;46.68;99522.69;2617443;54;20027;-69
2022/07/11 09:32:57;;;;;;;3.20;1.92;;;;;;;22.66;46.35;99522.81;2618414;54;20538;-68
2022/07/11 09:35:31;;;;;;;3.15;1.10;;;;;;;22.87;46.19;99521.13;2618831;39;20414;-69
2022/07/11 09:38:04;;;;;;;1.10;1.00;;;;;;;22.84;45.54;99520.81;2618146;54;20051;-69
2022/07/11 09:40:34;;;;;;;1.77;1.30;;;;;;;22.59;46.37;99526.78;2617850;47;20130;-69
2022/07/11 09:43:05;;;;;;;1.63;1.00;;;;;;;22.46;46.92;99523.41;2619124;54;20042;-71
2022/07/11 09:45:36;;;;;;;1.40;1.30;;;;;;;22.59;46.83;99522.19;2620196;39;20438;-74
2022/07/11 09:48:11;;;;;;;1.73;1.25;;;;;;;22.62;46.53;99518.19;2619479;54;20086;-73
2022/07/11 09:51:00;;;;;;;2.17;1.40;;;;;;;22.62;46.39;99520.88;2619099;54;20062;-73
2022/07/11 09:53:31;;;;;;;2.78;1.20;;;;;;;22.55;46.86;99517.56;2619530;47;20038;-73
2022/07/11 09:56:00;;;;;;;3.58;1.50;;;;;;;22.52;47.29;99521.56;2619538;54;20086;-73
2022/07/11 09:58:31;;;;;;;2.65;1.55;;;;;;;22.62;47.23;99519.00;2619439;54;20069;-71
2022/07/11 10:01:01;;;;;;;2.10;1.27;;;;;;;22.77;46.93;99517.50;2620004;54;20037;-73
2022/07/11 10:03:31;;;;;;;1.70;1.30;;;;;;;22.86;46.52;99519.50;2619069;54;20034;-72
2022/07/11 10:06:24;;;;;;;2.25;1.65;;;;;;;22.86;46.16;99521.34;2618937;54;20023;-72
2022/07/11 10:08:54;;;;;;;5.25;1.65;;;;;;;22.79;46.41;99515.38;2618945;54;20541;-71
2022/07/11 10:11:24;;;;;;;3.13;1.65;;;;;;;22.70;46.98;99513.16;2618420;54;20037;-72
2022/07/11 10:13:54;;;;;;;3.03;1.73;;;;;;;22.89;46.43;99512.75;2618126;47;20030;-73
2022/07/11 10:16:34;;;;;;;5.25;1.90;;;;;;;22.88;46.50;99519.22;2617986;47;20030;-66
2022/07/11 10:19:22;;;;;;;2.75;2.13;;;;;;;22.99;46.82;99519.09;2619277;54;20047;-66
2022/07/11 10:22:06;;;;;;;2.92;1.90;;;;;;;22.97;46.88;99515.84;2619995;54;20022;-66
2022/07/11 10:24:46;;;;;;;;;;;;;;;23.01;46.75;99510.75;2620075;54;20030;-65
2022/07/11 10:27:24;;;;;;;2.90;1.67;;;;;;;23.31;46.49;99512.06;2619783;54;20063;-65
2022/07/11 10:30:01;;;;;;;3.00;2.28;;;;;;;23.62;45.98;99513.88;2618924;54;20037;-66
2022/07/11 10:32:31;;;;;;;3.33;2.85;;;;;;;23.87;45.28;99523.22;2619651;54;20031;-65
2022/07/11 10:35:15;;;;;;;4.13;2.00;;;;;;;23.99;44.88;99513.03;2619865;54;20070;-67
2022/07/11 10:37:54;;;;;;;2.47;2.13;;;;;;;24.17;45.05;99519.88;2620305;39;20428;-66
2022/07/11 10:40:45;;;;;;;2.67;2.05;;;;;;;24.09;44.45;99523.91;2619688;54;20035;-66
2022/07/11 10:43:17;;;;;;;3.17;1.90;;;;;;;23.90;44.64;99522.72;2619706;54;20037;-65
2022/07/11 10:46:08;;;;;;;5.07;2.40;;;;;;;23.88;45.55;99517.59;2619729;54;20612;-68
2022/07/11 10:48:58;;;;;;;2.70;1.63;;;;;;;23.96;45.05;99513.56;2620105;39;20394;-66
2022/07/11 10:51:36;;;;;;;2.72;1.85;;;;;;;23.92;45.06;99520.56;2618947;47;20034;-65
2022/07/11 10:54:44;;;;;;;3.42;2.10;;;;;;;23.80;45.21;99515.38;2619718;54;20031;-67
2022/07/11 10:57:18;;;;;;;3.25;1.98;;;;;;;23.83;45.62;99512.16;2619294;54;20046;-66
2022/07/11 10:59:58;;;;;;;3.25;2.03;;;;;;;23.97;44.60;99520.59;2619864;39;20425;-67
2022/07/11 11:02:28;;;;;;;3.53;2.30;;;;;;;23.83;45.23;99506.75;2619323;54;20042;-68
2022/07/11 11:05:02;;;;;;;2.47;2.28;;;;;;;23.79;45.26;99510.22;2619114;54;20073;-68
2022/07/11 11:07:33;;;;;;;3.55;2.55;;;;;;;23.80;45.54;99519.94;2618526;47;20029;-67
2022/07/11 11:10:08;;;;;;;3.30;2.20;;;;;;;23.75;45.43;99515.34;2619480;39;20433;-67
2022/07/11 11:13:09;;;;;;;4.45;2.50;;;;;;;23.92;45.04;99521.41;2619334;54;20037;-66
2022/07/11 11:15:42;;;;;;;5.20;2.47;;;;;;;23.84;45.40;99508.38;2619029;54;20074;-70
2022/07/11 11:18:36;;;;;;;3.38;2.45;;;;;;;23.97;45.01;99517.91;2618693;54;20026;-69
2022/07/11 11:21:17;;;;;;;5.90;2.70;;;;;;;24.01;44.88;99510.09;2619086;54;20038;-68
2022/07/11 11:23:48;;;;;;;6.65;2.40;;;;;;;24.08;45.15;99508.75;2619169;54;20030;-67
2022/07/11 11:26:28;;;;;;;3.00;2.42;;;;;;;24.45;44.82;99507.81;2618892;54;20038;-66
2022/07/11 11:29:00;;;;;;;2.58;2.35;;;;;;;24.73;44.13;99501.13;2618859;54;20034;-67
2022/07/11 11:31:32;;;;;;;2.90;2.30;;;;;;;24.66;43.30;99500.59;2618122;54;20026;-68
2022/07/11 11:34:04;;;;;;;2.33;2.10;;;;;;;24.71;43.11;99493.28;2619316;54;20283;-67
2022/07/11 11:36:34;;;;;;;5.00;3.08;;;;;;;24.66;43.28;99495.19;2619280;54;20074;-67
2022/07/11 11:39:05;;;;;;;4.00;3.60;;;;;;;24.53;43.79;99490.28;2618421;54;20030;-67
2022/07/11 11:41:37;;;;;;;3.55;3.25;;;;;;;24.61;43.61;99490.56;2618527;54;20083;-66
2022/07/11 11:44:07;;;;;;;4.43;4.03;;;;;;;24.69;43.41;99490.03;2618919;54;20062;-67
2022/07/11 11:46:36;;;;;;;4.18;3.78;;;;;;;24.76;43.03;99487.06;2619093;54;20031;-69
2022/07/11 11:49:07;;;;;;;5.38;4.88;;;;;;;24.45;43.36;99484.34;2619096;54;20067;-68
2022/07/11 11:51:38;;;;;;;5.10;4.63;;;;;;;24.30;43.81;99484.25;2619683;54;20031;-68
2022/07/11 11:54:07;;;;;;;8.02;4.93;;;;;;;24.59;43.22;99491.91;2619314;54;20054;-66
2022/07/11 11:56:40;;;;;;;7.30;5.90;;;;;;;24.62;43.44;99489.50;2619003;47;20030;-68
2022/07/11 11:59:12;;;;;;;5.97;5.35;;;;;;;24.52;43.34;99489.47;2618802;54;20031;-68
2022/07/11 12:01:48;;;;;;;9.48;6.47;;;;;;;24.39;43.84;99482.69;2618788;54;20061;-68
2022/07/11 12:04:19;;;;;;;6.70;6.10;;;;;;;24.58;44.09;99490.31;2618837;54;20031;-68
2022/07/11 12:06:50;;;;;;;8.02;6.43;;;;;;;24.80;43.39;99496.25;2619360;39;20421;-67
2022/07/11 12:09:22;;;;;;;9.43;7.15;;;;;;;24.86;43.13;99497.91;2618577;54;20038;-67
2022/07/11 12:12:43;;;;;;;8.05;7.25;;;;;;;24.53;43.60;99491.06;2618974;46;20038;-68
2022/07/11 12:14:44;;;;;;;9.93;7.93;;;;;;;24.57;43.69;99485.94;2620451;54;20596;-66
2022/07/11 12:17:15;;;;;;;10.35;8.13;;;;;;;24.70;43.69;99497.06;2619059;54;20034;-69
2022/07/11 12:19:45;;;;;;;7.80;7.05;;;;;;;24.86;43.36;99488.94;2618750;47;20031;-69